createdAt,value
2023-01-13T00:01:16.112Z,11.77
2023-01-13T00:03:43.800Z,11.95
2023-01-13T00:06:21.473Z,12.00
2023-01-13T00:08:49.727Z,12.07
2023-01-13T00:11:16.779Z,12.35
2023-01-13T00:13:43.321Z,12.16
2023-01-13T00:16:17.944Z,12.36
2023-01-13T00:18:45.925Z,12.05
2023-01-13T00:21:19.227Z,12.12
2023-01-13T00:23:46.271Z,12.10
2023-01-13T00:26:19.235Z,12.23
2023-01-13T00:28:45.880Z,12.11
2023-01-13T00:31:20.686Z,12.15
2023-01-13T00:33:51.634Z,12.17
2023-01-13T00:36:20.222Z,12.28
2023-01-13T00:38:47.771Z,12.29
2023-01-13T00:41:25.267Z,12.27
2023-01-13T00:43:51.901Z,12.04
2023-01-13T00:46:20.594Z,12.08
2023-01-13T00:48:47.760Z,12.43
2023-01-13T00:51:19.807Z,12.11
2023-01-13T00:53:49.478Z,12.23
2023-01-13T00:56:34.145Z,12.28
2023-01-13T00:59:04.962Z,12.33
2023-01-13T01:01:31.667Z,12.30
2023-01-13T01:03:58.419Z,12.29
2023-01-13T01:06:26.955Z,12.45
2023-01-13T01:08:54.867Z,12.48
2023-01-13T01:11:27.857Z,12.67
2023-01-13T01:13:56.242Z,12.75
2023-01-13T01:16:24.837Z,12.57
2023-01-13T01:18:53.212Z,12.78
2023-01-13T01:21:21.211Z,12.61
2023-01-13T01:23:47.964Z,12.54
2023-01-13T01:26:20.317Z,11.88
2023-01-13T01:28:47.464Z,11.72
2023-01-13T01:31:19.833Z,11.80
2023-01-13T01:33:47.565Z,11.85
2023-01-13T01:36:17.625Z,11.74
2023-01-13T01:38:44.886Z,11.57
2023-01-13T01:41:15.784Z,11.61
2023-01-13T01:43:59.604Z,11.77
2023-01-13T01:46:32.155Z,11.68
2023-01-13T01:49:06.478Z,11.70
2023-01-13T01:51:38.677Z,11.68
2023-01-13T01:54:09.580Z,11.72
2023-01-13T01:56:37.475Z,11.76
2023-01-13T01:59:04.218Z,11.68
2023-01-13T02:01:33.896Z,11.62
2023-01-13T02:04:09.444Z,11.54
2023-01-13T02:06:36.518Z,11.56
2023-01-13T02:09:03.687Z,11.41
2023-01-13T02:11:52.084Z,11.27
2023-01-13T02:14:22.049Z,11.50
2023-01-13T02:16:59.314Z,11.41
2023-01-13T02:19:54.685Z,11.52
2023-01-13T02:22:56.685Z,11.34
2023-01-13T02:25:29.465Z,11.81
2023-01-13T02:28:04.996Z,11.79
2023-01-13T02:31:00.858Z,11.46
2023-01-13T02:33:45.813Z,11.49
2023-01-13T02:36:16.340Z,11.42
2023-01-13T02:38:50.918Z,11.41
2023-01-13T02:42:11.714Z,11.50
2023-01-13T02:44:48.887Z,11.51
2023-01-13T02:47:25.955Z,11.75
2023-01-13T02:50:01.983Z,11.45
2023-01-13T02:52:37.377Z,11.37
2023-01-13T02:55:06.807Z,11.44
2023-01-13T02:57:36.441Z,11.35
2023-01-13T03:00:06.153Z,11.27
2023-01-13T03:02:32.862Z,11.25
2023-01-13T03:05:00.761Z,11.16
2023-01-13T03:07:39.865Z,11.12
2023-01-13T03:10:19.551Z,11.21
2023-01-13T03:13:05.484Z,11.13
2023-01-13T03:15:42.635Z,11.09
2023-01-13T03:18:46.299Z,11.06
2023-01-13T03:21:21.264Z,11.07
2023-01-13T03:23:52.108Z,10.95
2023-01-13T03:26:24.822Z,10.95
2023-01-13T03:29:17.945Z,11.06
2023-01-13T03:31:54.179Z,11.04
2023-01-13T03:34:24.343Z,10.98
2023-01-13T03:36:55.107Z,11.10
2023-01-13T03:39:29.176Z,11.00
2023-01-13T03:42:01.526Z,10.83
2023-01-13T03:44:53.245Z,10.69
2023-01-13T03:47:50.983Z,10.90
2023-01-13T03:50:49.354Z,11.09
2023-01-13T03:53:23.572Z,11.22
2023-01-13T03:56:02.951Z,11.12
2023-01-13T03:58:35.239Z,11.29
2023-01-13T04:01:26.196Z,11.19
2023-01-13T04:04:10.746Z,11.03
2023-01-13T04:07:09.487Z,11.21
2023-01-13T04:09:38.910Z,11.25
2023-01-13T04:12:18.594Z,11.41
2023-01-13T04:14:46.198Z,11.43
2023-01-13T04:17:12.914Z,11.38
2023-01-13T04:19:39.451Z,11.25
2023-01-13T04:22:06.325Z,11.34
2023-01-13T04:24:32.966Z,11.31
2023-01-13T04:26:59.545Z,11.50
2023-01-13T04:29:26.571Z,11.27
2023-01-13T04:31:53.115Z,11.34
2023-01-13T04:34:19.743Z,11.36
2023-01-13T04:36:46.359Z,10.87
2023-01-13T04:39:12.967Z,10.68
2023-01-13T04:41:57.745Z,10.83
2023-01-13T04:44:24.362Z,10.71
2023-01-13T04:46:50.975Z,10.71
2023-01-13T04:49:17.615Z,10.87
2023-01-13T04:51:44.145Z,10.97
2023-01-13T04:54:11.358Z,10.69
2023-01-13T04:56:37.909Z,10.59
2023-01-13T04:59:04.551Z,10.76
2023-01-13T05:01:31.120Z,11.02
2023-01-13T05:03:57.863Z,11.31
2023-01-13T05:06:24.381Z,11.23
2023-01-13T05:08:50.980Z,10.87
2023-01-13T05:11:36.045Z,10.82
2023-01-13T05:14:21.305Z,10.62
2023-01-13T05:17:01.001Z,10.84
2023-01-13T05:19:35.328Z,10.77
2023-01-13T05:22:21.003Z,10.86
2023-01-13T05:25:06.438Z,10.93
2023-01-13T05:27:33.569Z,10.82
2023-01-13T05:30:00.195Z,10.87
2023-01-13T05:32:30.235Z,10.84
2023-01-13T05:34:56.864Z,11.02
2023-01-13T05:37:24.497Z,11.34
2023-01-13T05:40:10.333Z,11.36
2023-01-13T05:42:55.680Z,10.98
2023-01-13T05:45:22.334Z,11.00
2023-01-13T05:47:48.916Z,10.95
2023-01-13T05:50:16.187Z,10.95
2023-01-13T05:52:43.414Z,10.94
2023-01-13T05:55:11.096Z,11.14
2023-01-13T05:57:37.658Z,11.07
2023-01-13T06:00:05.292Z,10.95
2023-01-13T06:02:38.223Z,10.90
2023-01-13T06:05:05.023Z,10.83
2023-01-13T06:07:31.676Z,10.80
2023-01-13T06:09:58.190Z,10.72
2023-01-13T06:12:24.717Z,10.60
2023-01-13T06:14:51.231Z,10.62
2023-01-13T06:17:17.882Z,10.57
2023-01-13T06:19:44.539Z,10.59
2023-01-13T06:22:23.247Z,10.56
2023-01-13T06:24:50.772Z,10.45
2023-01-13T06:27:18.136Z,10.36
2023-01-13T06:29:44.696Z,10.32
2023-01-13T06:32:22.102Z,10.37
2023-01-13T06:34:58.033Z,10.44
2023-01-13T06:37:26.074Z,10.50
2023-01-13T06:39:58.436Z,10.45
2023-01-13T06:42:46.930Z,10.27
2023-01-13T06:45:13.997Z,10.15
2023-01-13T06:47:40.931Z,10.10
2023-01-13T06:50:07.931Z,10.08
2023-01-13T06:52:34.438Z,10.10
2023-01-13T06:55:01.093Z,10.17
2023-01-13T06:57:27.625Z,10.14
2023-01-13T06:59:54.220Z,10.12
2023-01-13T07:02:20.891Z,10.22
2023-01-13T07:04:47.657Z,10.17
2023-01-13T07:07:14.322Z,10.14
2023-01-13T07:09:40.900Z,10.14
2023-01-13T07:12:07.716Z,10.05
2023-01-13T07:14:54.339Z,10.13
2023-01-13T07:17:25.012Z,10.17
2023-01-13T07:19:53.032Z,10.06
2023-01-13T07:22:19.606Z,10.03
2023-01-13T07:24:46.216Z,10.16
2023-01-13T07:27:12.792Z,10.16
2023-01-13T07:29:39.663Z,10.17
2023-01-13T07:32:07.705Z,10.15
2023-01-13T07:34:34.455Z,10.28
2023-01-13T07:37:01.761Z,10.19
2023-01-13T07:39:28.325Z,10.15
2023-01-13T07:42:13.377Z,10.09
2023-01-13T07:44:39.976Z,9.91
2023-01-13T07:47:08.448Z,10.04
2023-01-13T07:49:35.164Z,10.08
2023-01-13T07:52:02.184Z,10.15
2023-01-13T07:54:40.184Z,10.21
2023-01-13T07:57:09.070Z,9.95
2023-01-13T07:59:35.644Z,10.12
2023-01-13T08:02:02.579Z,10.22
2023-01-13T08:04:29.178Z,10.26
2023-01-13T08:06:55.739Z,10.23
2023-01-13T08:09:22.308Z,10.30
2023-01-13T08:12:08.821Z,10.33
2023-01-13T08:14:35.529Z,10.30
2023-01-13T08:17:02.031Z,10.41
2023-01-13T08:19:28.576Z,10.35
2023-01-13T08:21:55.099Z,10.26
2023-01-13T08:24:21.768Z,10.45
2023-01-13T08:26:48.347Z,10.42
2023-01-13T08:29:15.283Z,10.56
2023-01-13T08:31:41.962Z,10.38
2023-01-13T08:34:08.988Z,10.47
2023-01-13T08:36:35.529Z,10.59
2023-01-13T08:39:02.184Z,10.51
2023-01-13T08:41:47.031Z,10.67
2023-01-13T08:44:13.599Z,10.31
2023-01-13T08:46:41.707Z,10.32
2023-01-13T08:49:08.266Z,10.39
2023-01-13T08:51:34.870Z,10.28
2023-01-13T08:54:02.113Z,10.37
2023-01-13T08:56:35.012Z,10.61
2023-01-13T08:59:02.216Z,10.71
2023-01-13T09:01:28.976Z,10.72
2023-01-13T09:03:56.093Z,10.93
2023-01-13T09:06:22.750Z,10.84
2023-01-13T09:08:49.659Z,10.82
2023-01-13T09:11:44.471Z,10.91
2023-01-13T09:14:11.068Z,10.86
2023-01-13T09:16:37.589Z,10.84
2023-01-13T09:19:04.165Z,10.62
2023-01-13T09:21:30.654Z,10.67
2023-01-13T09:23:57.266Z,10.67
2023-01-13T09:26:23.773Z,10.62
2023-01-13T09:28:50.333Z,10.82
2023-01-13T09:31:17.023Z,10.83
2023-01-13T09:34:02.387Z,10.64
2023-01-13T09:36:28.937Z,10.54
2023-01-13T09:38:55.457Z,10.51
2023-01-13T09:41:43.486Z,10.75
2023-01-13T09:44:16.638Z,10.65
2023-01-13T09:46:49.459Z,10.51
2023-01-13T09:49:38.734Z,10.71
2023-01-13T09:52:19.630Z,10.88
2023-01-13T09:54:55.702Z,10.68
2023-01-13T09:57:22.335Z,10.78
2023-01-13T09:59:49.118Z,10.86
2023-01-13T10:02:21.655Z,10.97
2023-01-13T10:05:16.938Z,11.17
2023-01-13T10:07:50.893Z,10.99
2023-01-13T10:10:27.950Z,11.02
2023-01-13T10:13:14.259Z,11.16
2023-01-13T10:15:46.875Z,11.12
2023-01-13T10:18:55.104Z,11.30
2023-01-13T10:21:41.893Z,11.39
2023-01-13T10:24:34.292Z,11.52
2023-01-13T10:27:12.537Z,11.63
2023-01-13T10:29:39.129Z,11.72
2023-01-13T10:32:05.670Z,11.64
2023-01-13T10:34:47.123Z,11.69
2023-01-13T10:37:28.009Z,11.36
2023-01-13T10:39:57.534Z,11.27
2023-01-13T10:42:24.494Z,11.39
2023-01-13T10:44:59.558Z,11.42
2023-01-13T10:47:35.533Z,11.35
2023-01-13T10:50:11.591Z,11.38
2023-01-13T10:52:43.356Z,11.62
2023-01-13T10:55:24.826Z,11.76
2023-01-13T10:57:51.517Z,11.62
2023-01-13T11:00:31.858Z,11.56
2023-01-13T11:03:13.818Z,11.73
2023-01-13T11:05:47.463Z,11.41
2023-01-13T11:08:18.385Z,11.38
2023-01-13T11:10:50.557Z,11.43
2023-01-13T11:13:23.877Z,11.43
2023-01-13T11:15:50.674Z,11.68
2023-01-13T11:19:01.877Z,11.24
2023-01-13T11:21:35.641Z,11.23
2023-01-13T11:24:37.069Z,11.46
2023-01-13T11:27:07.368Z,11.29
2023-01-13T11:29:55.929Z,11.23
2023-01-13T11:32:24.514Z,11.11
2023-01-13T11:34:56.414Z,11.19
2023-01-13T11:37:27.047Z,11.29
2023-01-13T11:40:12.466Z,11.34
2023-01-13T11:42:48.100Z,11.04
2023-01-13T11:45:17.743Z,10.99
2023-01-13T11:47:47.275Z,10.83
2023-01-13T11:50:18.617Z,10.81
2023-01-13T11:53:01.441Z,10.78
2023-01-13T11:55:39.656Z,10.89
2023-01-13T11:58:24.231Z,10.83
2023-01-13T12:01:13.290Z,10.97
2023-01-13T12:03:49.625Z,11.00
2023-01-13T12:06:24.729Z,10.84
2023-01-13T12:09:09.822Z,10.80
2023-01-13T12:12:10.124Z,10.71
2023-01-13T12:14:53.386Z,10.27
2023-01-13T12:17:34.637Z,9.91
2023-01-13T12:20:26.308Z,9.78
2023-01-13T12:22:57.843Z,9.46
2023-01-13T12:25:33.350Z,9.56
2023-01-13T12:28:11.371Z,9.53
2023-01-13T12:30:50.385Z,9.79
2023-01-13T12:33:26.004Z,9.97
2023-01-13T12:36:07.754Z,10.10
2023-01-13T12:38:42.135Z,10.16
2023-01-13T12:41:59.543Z,10.03
2023-01-13T12:44:26.147Z,10.03
2023-01-13T12:46:56.141Z,10.08
2023-01-13T12:49:34.436Z,10.29
2023-01-13T12:52:07.827Z,10.12
2023-01-13T12:54:37.329Z,10.06
2023-01-13T12:57:21.506Z,9.93
2023-01-13T13:00:03.157Z,9.93
2023-01-13T13:02:40.523Z,10.10
2023-01-13T13:05:25.176Z,10.15
2023-01-13T13:08:00.781Z,10.33
2023-01-13T13:10:34.645Z,10.22
2023-01-13T13:13:18.440Z,10.32
2023-01-13T13:15:51.906Z,10.28
2023-01-13T13:18:19.464Z,10.26
2023-01-13T13:21:02.370Z,10.21
2023-01-13T13:23:34.431Z,10.18
2023-01-13T13:26:20.214Z,10.15
2023-01-13T13:28:56.015Z,10.18
2023-01-13T13:31:44.345Z,9.96
2023-01-13T13:34:32.438Z,10.20
2023-01-13T13:37:07.934Z,10.05
2023-01-13T13:40:01.085Z,9.97
2023-01-13T13:42:53.230Z,10.05
2023-01-13T13:45:44.403Z,10.10
2023-01-13T13:48:34.212Z,9.68
2023-01-13T13:51:05.692Z,9.43
2023-01-13T13:53:41.335Z,9.52
2023-01-13T13:56:22.812Z,9.77
2023-01-13T13:58:50.393Z,9.75
2023-01-13T14:01:29.962Z,9.83
2023-01-13T14:04:18.365Z,9.99
2023-01-13T14:07:00.671Z,9.87
2023-01-13T14:09:39.713Z,9.88
2023-01-13T14:12:19.641Z,9.70
2023-01-13T14:14:48.130Z,9.82
2023-01-13T14:17:25.107Z,10.08
2023-01-13T14:19:55.588Z,10.31
2023-01-13T14:22:22.485Z,10.32
2023-01-13T14:24:55.328Z,10.68
2023-01-13T14:27:23.843Z,10.59
2023-01-13T14:29:55.536Z,10.06
2023-01-13T14:32:29.325Z,9.76
2023-01-13T14:34:55.923Z,9.82
2023-01-13T14:37:25.310Z,9.74
2023-01-13T14:39:52.324Z,9.95
2023-01-13T14:42:19.221Z,9.99
2023-01-13T14:44:49.599Z,9.83
2023-01-13T14:47:27.813Z,10.06
2023-01-13T14:50:02.247Z,10.05
2023-01-13T14:52:32.699Z,9.89
2023-01-13T14:55:09.903Z,10.07
2023-01-13T14:57:39.482Z,9.89
2023-01-13T15:00:21.224Z,9.63
2023-01-13T15:02:57.179Z,9.58
2023-01-13T15:05:26.658Z,9.99
2023-01-13T15:07:59.334Z,9.69
2023-01-13T15:10:31.765Z,9.81
2023-01-13T15:13:01.487Z,9.88
2023-01-13T15:15:38.123Z,9.73
2023-01-13T15:18:14.076Z,9.86
2023-01-13T15:20:41.985Z,9.94
2023-01-13T15:23:09.169Z,10.11
2023-01-13T15:25:38.105Z,9.96
2023-01-13T15:28:06.733Z,9.84
2023-01-13T15:30:33.569Z,9.95
2023-01-13T15:33:00.160Z,9.92
2023-01-13T15:35:29.193Z,9.89
2023-01-13T15:37:56.763Z,10.00
2023-01-13T15:40:31.104Z,10.22
2023-01-13T15:43:16.793Z,10.06
2023-01-13T15:46:02.547Z,10.10
2023-01-13T15:48:33.041Z,10.21
2023-01-13T15:51:02.283Z,9.82
2023-01-13T15:53:29.738Z,9.59
2023-01-13T15:55:58.927Z,9.76
2023-01-13T15:58:34.495Z,9.85
2023-01-13T16:01:01.305Z,9.90
2023-01-13T16:03:27.937Z,9.96
2023-01-13T16:05:54.525Z,10.06
2023-01-13T16:08:22.830Z,10.08
2023-01-13T16:10:49.850Z,10.19
2023-01-13T16:13:17.702Z,10.35
2023-01-13T16:15:48.763Z,10.30
2023-01-13T16:18:21.432Z,10.31
2023-01-13T16:20:52.678Z,10.35
2023-01-13T16:23:19.853Z,10.28
2023-01-13T16:25:46.740Z,10.36
2023-01-13T16:28:23.897Z,10.29
2023-01-13T16:30:51.123Z,10.23
2023-01-13T16:33:17.824Z,10.21
2023-01-13T16:36:09.721Z,10.07
2023-01-13T16:38:31.038Z,10.27
2023-01-13T16:40:57.668Z,10.15
2023-01-13T16:43:24.277Z,10.31
2023-01-13T16:45:50.844Z,10.32
2023-01-13T16:48:20.317Z,10.44
2023-01-13T16:50:47.392Z,10.31
2023-01-13T16:53:14.012Z,10.43
2023-01-13T16:55:41.706Z,10.52
2023-01-13T17:02:37.347Z,10.43
2023-01-13T17:05:04.329Z,10.30
2023-01-13T17:07:31.397Z,10.33
2023-01-13T17:09:59.108Z,10.43
2023-01-13T17:12:25.624Z,10.40
2023-01-13T17:14:52.162Z,10.47
2023-01-13T17:17:27.198Z,10.39
2023-01-13T17:19:54.389Z,10.48
2023-01-13T17:22:21.679Z,10.58
2023-01-13T17:24:48.972Z,10.61
2023-01-13T17:27:17.173Z,10.58
2023-01-13T17:29:44.377Z,10.71
2023-01-13T17:32:16.661Z,10.45
2023-01-13T17:34:44.447Z,10.38
2023-01-13T17:37:14.564Z,10.17
2023-01-13T17:39:44.110Z,10.05
2023-01-13T17:42:11.351Z,9.90
2023-01-13T17:44:38.521Z,10.00
2023-01-13T17:47:05.805Z,9.98
2023-01-13T17:49:32.709Z,9.74
2023-01-13T17:51:59.314Z,9.65
2023-01-13T17:54:25.938Z,9.72
2023-01-13T17:56:52.545Z,9.68
2023-01-13T17:59:19.727Z,9.80
2023-01-13T18:01:46.387Z,9.95
2023-01-13T18:04:18.132Z,9.78
2023-01-13T18:06:45.206Z,9.90
2023-01-13T18:09:12.164Z,9.89
2023-01-13T18:11:39.057Z,9.81
2023-01-13T18:14:06.557Z,9.80
2023-01-13T18:16:33.224Z,9.82
2023-01-13T18:19:19.084Z,9.74
2023-01-13T18:22:04.890Z,9.75
2023-01-13T18:24:50.091Z,9.83
2023-01-13T18:27:19.695Z,9.72
2023-01-13T18:29:46.799Z,9.73
2023-01-13T18:32:13.992Z,9.71
2023-01-13T18:34:40.655Z,9.75
2023-01-13T18:37:09.303Z,9.93
2023-01-13T18:39:38.635Z,9.90
2023-01-13T18:42:25.590Z,9.72
2023-01-13T18:44:53.116Z,9.66
2023-01-13T18:47:20.005Z,9.84
2023-01-13T18:49:46.653Z,9.79
2023-01-13T18:52:13.203Z,9.79
2023-01-13T18:54:39.761Z,9.78
2023-01-13T18:57:06.406Z,9.86
2023-01-13T18:59:34.568Z,10.04
2023-01-13T19:02:02.616Z,9.94
2023-01-13T19:04:29.464Z,10.19
2023-01-13T19:07:00.651Z,10.35
2023-01-13T19:09:31.209Z,10.52
2023-01-13T19:11:58.733Z,10.53
2023-01-13T19:14:34.399Z,10.49
2023-01-13T19:17:09.842Z,10.57
2023-01-13T19:19:39.829Z,10.62
2023-01-13T19:22:07.218Z,10.52
2023-01-13T19:24:34.419Z,10.46
2023-01-13T19:27:00.983Z,10.32
2023-01-13T19:29:28.082Z,10.26
2023-01-13T19:31:54.709Z,9.99
2023-01-13T19:34:22.893Z,9.67
2023-01-13T19:36:51.806Z,9.43
2023-01-13T19:39:19.609Z,9.56
2023-01-13T19:42:04.815Z,9.56
2023-01-13T19:44:49.911Z,9.68
2023-01-13T19:47:16.980Z,9.65
2023-01-13T19:49:44.031Z,9.84
2023-01-13T19:52:10.697Z,9.74
2023-01-13T19:54:37.256Z,9.84
2023-01-13T19:57:04.280Z,9.97
2023-01-13T19:59:32.405Z,9.73
2023-01-13T20:02:09.031Z,9.82
2023-01-13T20:04:38.541Z,9.81
2023-01-13T20:07:06.250Z,9.97
2023-01-13T20:09:34.480Z,10.00
2023-01-13T20:12:08.116Z,10.01
2023-01-13T20:14:34.711Z,10.10
2023-01-13T20:17:01.231Z,10.29
2023-01-13T20:19:27.785Z,10.28
2023-01-13T20:21:54.296Z,10.11
2023-01-13T20:24:21.167Z,10.10
2023-01-13T20:26:47.748Z,10.06
2023-01-13T20:29:14.378Z,10.11
2023-01-13T20:31:40.928Z,10.21
2023-01-13T20:34:07.556Z,10.31
2023-01-13T20:36:38.798Z,10.30
2023-01-13T20:39:08.096Z,10.25
2023-01-13T20:41:53.171Z,10.30
2023-01-13T20:44:19.670Z,10.23
2023-01-13T20:46:46.289Z,9.64
2023-01-13T20:49:14.918Z,9.79
2023-01-13T20:51:42.447Z,9.75
2023-01-13T20:54:09.248Z,9.68
2023-01-13T20:56:36.511Z,9.77
2023-01-13T20:59:03.563Z,9.99
2023-01-13T21:01:31.941Z,9.79
2023-01-13T21:03:59.912Z,9.81
2023-01-13T21:06:28.247Z,9.87
2023-01-13T21:08:55.281Z,9.95
2023-01-13T21:11:42.692Z,10.02
2023-01-13T21:14:42.590Z,10.03
2023-01-13T21:17:28.733Z,10.12
2023-01-13T21:19:56.016Z,10.12
2023-01-13T21:22:22.879Z,10.12
2023-01-13T21:24:49.669Z,10.03
2023-01-13T21:27:17.628Z,10.10
2023-01-13T21:29:44.531Z,10.08
2023-01-13T21:32:11.389Z,10.25
2023-01-13T21:34:37.987Z,10.06
2023-01-13T21:37:04.510Z,9.88
2023-01-13T21:39:31.155Z,10.20
2023-01-13T21:42:16.427Z,10.07
2023-01-13T21:45:01.760Z,10.16
2023-01-13T21:47:46.987Z,10.10
2023-01-13T21:50:15.426Z,10.22
2023-01-13T21:52:42.872Z,10.07
2023-01-13T21:55:17.054Z,10.18
2023-01-13T21:57:51.101Z,10.21
2023-01-13T22:00:20.214Z,10.42
2023-01-13T22:02:47.932Z,10.28
2023-01-13T22:05:17.811Z,10.01
2023-01-13T22:07:44.459Z,10.27
2023-01-13T22:10:14.292Z,9.86
2023-01-13T22:12:41.095Z,9.94
2023-01-13T22:15:08.452Z,10.00
2023-01-13T22:17:35.138Z,9.95
2023-01-13T22:20:01.923Z,10.03
2023-01-13T22:22:29.120Z,10.04
2023-01-13T22:24:55.866Z,10.10
2023-01-13T22:27:25.287Z,10.03
2023-01-13T22:29:52.975Z,9.59
2023-01-13T22:32:20.683Z,9.62
2023-01-13T22:34:47.893Z,9.67
2023-01-13T22:37:14.568Z,9.54
2023-01-13T22:39:41.236Z,9.67
2023-01-13T22:42:08.046Z,9.73
2023-01-13T22:44:34.668Z,9.67
2023-01-13T22:47:01.318Z,9.64
2023-01-13T22:49:27.881Z,9.89
2023-01-13T22:51:54.508Z,9.81
2023-01-13T22:54:21.900Z,9.95
2023-01-13T22:56:48.474Z,9.94
2023-01-13T22:59:15.941Z,10.10
2023-01-13T23:01:42.906Z,10.07
2023-01-13T23:04:13.469Z,9.99
2023-01-13T23:06:41.010Z,9.96
2023-01-13T23:09:08.171Z,10.08
2023-01-13T23:11:35.253Z,10.31
2023-01-13T23:14:07.100Z,10.36
2023-01-13T23:16:36.667Z,10.61
2023-01-13T23:19:05.152Z,10.60
2023-01-13T23:21:35.998Z,10.15
2023-01-13T23:24:04.330Z,10.08
2023-01-13T23:26:31.579Z,10.03
2023-01-13T23:29:04.406Z,10.10
2023-01-13T23:31:31.536Z,10.11
2023-01-13T23:33:58.091Z,9.95
2023-01-13T23:36:26.273Z,9.99
2023-01-13T23:38:53.419Z,10.10
2023-01-13T23:41:24.435Z,10.26
2023-01-13T23:43:56.998Z,10.21
2023-01-13T23:46:24.451Z,10.19
2023-01-13T23:48:52.139Z,10.15
2023-01-13T23:51:21.184Z,10.20
2023-01-13T23:53:49.888Z,10.39
2023-01-13T23:56:19.339Z,10.34
2023-01-13T23:58:46.345Z,10.33
